createdAt,value
2023-04-03T00:00:41.769Z,2.47
2023-04-03T00:01:41.777Z,2.44
2023-04-03T00:02:42.040Z,2.44
2023-04-03T00:03:41.755Z,2.44
2023-04-03T00:04:41.939Z,2.43
2023-04-03T00:05:41.709Z,2.43
2023-04-03T00:06:41.720Z,2.43
2023-04-03T00:07:41.798Z,2.43
2023-04-03T00:08:41.709Z,2.40
2023-04-03T00:09:41.711Z,2.41
2023-04-03T00:10:41.689Z,2.38
2023-04-03T00:11:41.698Z,2.41
2023-04-03T00:12:41.699Z,2.38
2023-04-03T00:13:41.640Z,2.38
2023-04-03T00:14:41.646Z,2.37
2023-04-03T00:15:41.658Z,2.36
2023-04-03T00:16:41.662Z,2.37
2023-04-03T00:17:41.664Z,2.36
2023-04-03T00:18:41.589Z,2.37
2023-04-03T00:19:41.573Z,2.36
2023-04-03T00:20:41.586Z,2.36
2023-04-03T00:21:41.562Z,2.36
2023-04-03T00:22:41.593Z,2.36
2023-04-03T00:23:41.530Z,2.32
2023-04-03T00:24:41.547Z,2.38
2023-04-03T00:25:41.521Z,2.33
2023-04-03T00:26:41.653Z,2.36
2023-04-03T00:27:41.526Z,2.33
2023-04-03T00:28:41.513Z,2.36
2023-04-03T00:29:41.469Z,2.37
2023-04-03T00:30:41.478Z,2.32
2023-04-03T00:31:41.461Z,2.33
2023-04-03T00:32:41.541Z,2.33
2023-04-03T00:33:41.424Z,2.32
2023-04-03T00:34:41.424Z,2.33
2023-04-03T00:35:41.495Z,2.32
2023-04-03T00:36:41.503Z,2.32
2023-04-03T00:37:41.729Z,2.33
2023-04-03T00:38:41.409Z,2.29
2023-04-03T00:39:41.386Z,2.27
2023-04-03T00:40:41.383Z,2.29
2023-04-03T00:41:41.389Z,2.27
2023-04-03T00:42:41.365Z,2.27
2023-04-03T00:43:41.331Z,2.32
2023-04-03T00:44:41.378Z,2.29
2023-04-03T00:45:41.327Z,2.30
2023-04-03T00:46:41.362Z,2.29
2023-04-03T00:47:41.321Z,2.29
2023-04-03T00:48:41.379Z,2.29
2023-04-03T00:49:41.274Z,2.27
2023-04-03T00:50:41.256Z,2.29
2023-04-03T00:51:41.257Z,2.27
2023-04-03T00:52:41.291Z,2.26
2023-04-03T00:53:41.221Z,2.29
2023-04-03T00:54:41.229Z,2.26
2023-04-03T00:55:47.212Z,2.27
2023-04-03T00:56:41.200Z,2.26
2023-04-03T00:57:41.284Z,2.27
2023-04-03T00:58:41.185Z,2.26
2023-04-03T00:59:41.170Z,2.23
2023-04-03T01:00:41.154Z,2.23
2023-04-03T01:01:41.243Z,2.25
2023-04-03T01:02:41.176Z,2.25
2023-04-03T01:03:41.131Z,2.23
2023-04-03T01:04:41.180Z,2.25
2023-04-03T01:05:41.099Z,2.22
2023-04-03T01:06:41.093Z,2.25
2023-04-03T01:07:41.093Z,2.26
2023-04-03T01:08:41.095Z,2.23
2023-04-03T01:09:41.093Z,2.22
2023-04-03T01:10:41.066Z,2.23
2023-04-03T01:11:41.046Z,2.22
2023-04-03T01:12:41.048Z,2.23
2023-04-03T01:13:41.069Z,2.23
2023-04-03T01:14:41.041Z,2.20
2023-04-03T01:15:41.015Z,2.22
2023-04-03T01:16:41.013Z,2.23
2023-04-03T01:17:41.060Z,2.20
2023-04-03T01:18:41.000Z,2.19
2023-04-03T01:19:40.967Z,2.18
2023-04-03T01:20:40.967Z,2.19
2023-04-03T01:21:40.966Z,2.18
2023-04-03T01:22:40.966Z,2.18
2023-04-03T01:23:40.932Z,2.15
2023-04-03T01:24:40.931Z,2.14
2023-04-03T01:25:40.902Z,2.15
2023-04-03T01:26:40.900Z,2.14
2023-04-03T01:27:40.902Z,2.18
2023-04-03T01:28:40.883Z,2.18
2023-04-03T01:29:40.870Z,2.18
2023-04-03T01:30:40.855Z,2.18
2023-04-03T01:31:40.884Z,2.15
2023-04-03T01:32:40.967Z,2.14
2023-04-03T01:33:40.866Z,2.14
2023-04-03T01:34:40.824Z,2.15
2023-04-03T01:35:40.830Z,2.14
2023-04-03T01:36:40.817Z,2.12
2023-04-03T01:37:40.781Z,2.12
2023-04-03T01:38:40.807Z,2.12
2023-04-03T01:39:40.765Z,2.11
2023-04-03T01:40:40.790Z,2.12
2023-04-03T01:41:40.780Z,2.09
2023-04-03T01:42:40.865Z,2.09
2023-04-03T01:43:40.721Z,2.08
2023-04-03T01:44:40.730Z,2.08
2023-04-03T01:45:40.741Z,2.04
2023-04-03T01:46:40.714Z,2.05
2023-04-03T01:47:40.730Z,2.07
2023-04-03T01:48:40.713Z,2.04
2023-04-03T01:49:40.664Z,2.02
2023-04-03T01:50:40.657Z,2.02
2023-04-03T01:51:40.657Z,2.01
2023-04-03T01:52:40.648Z,2.01
2023-04-03T01:53:40.680Z,2.01
2023-04-03T01:54:40.628Z,1.98
2023-04-03T01:55:40.602Z,2.00
2023-04-03T01:56:40.621Z,1.98
2023-04-03T01:57:40.581Z,2.00
2023-04-03T01:58:40.620Z,2.01
2023-04-03T01:59:40.593Z,2.00
2023-04-03T02:00:40.556Z,2.02
2023-04-03T02:01:40.598Z,2.01
2023-04-03T02:02:40.591Z,1.95
2023-04-03T02:03:40.574Z,2.00
2023-04-03T02:04:40.515Z,1.95
2023-04-03T02:05:40.525Z,1.95
2023-04-03T02:06:40.489Z,1.95
2023-04-03T02:07:40.635Z,1.98
2023-04-03T02:08:40.498Z,1.92
2023-04-03T02:09:40.482Z,1.92
2023-04-03T02:10:40.465Z,1.93
2023-04-03T02:11:40.444Z,1.89
2023-04-03T02:12:40.442Z,1.88
2023-04-03T02:13:40.437Z,1.90
2023-04-03T02:14:40.416Z,1.89
2023-04-03T02:15:40.425Z,1.89
2023-04-03T02:16:40.426Z,1.90
2023-04-03T02:17:40.415Z,1.90
2023-04-03T02:18:40.387Z,1.86
2023-04-03T02:19:40.367Z,1.88
2023-04-03T02:20:40.360Z,1.86
2023-04-03T02:21:40.337Z,1.85
2023-04-03T02:22:40.328Z,1.86
2023-04-03T02:23:40.320Z,1.83
2023-04-03T02:24:40.302Z,1.85
2023-04-03T02:25:40.294Z,1.82
2023-04-03T02:26:40.288Z,1.81
2023-04-03T02:27:40.272Z,1.77
2023-04-03T02:28:40.348Z,1.77
2023-04-03T02:29:40.246Z,1.75
2023-04-03T02:30:40.484Z,1.77
2023-04-03T02:31:40.226Z,1.72
2023-04-03T02:32:40.284Z,1.74
2023-04-03T02:33:40.232Z,1.72
2023-04-03T02:34:40.227Z,1.70
2023-04-03T02:35:40.238Z,1.74
2023-04-03T02:36:40.189Z,1.74
2023-04-03T02:37:40.170Z,1.72
2023-04-03T02:38:40.235Z,1.72
2023-04-03T02:39:40.145Z,1.71
2023-04-03T02:40:40.163Z,1.68
2023-04-03T02:41:40.127Z,1.71
2023-04-03T02:42:40.114Z,1.71
2023-04-03T02:43:40.154Z,1.70
2023-04-03T02:44:40.099Z,1.77
2023-04-03T02:45:40.095Z,1.77
2023-04-03T02:46:40.083Z,1.72
2023-04-03T02:47:40.081Z,1.74
2023-04-03T02:48:40.099Z,1.77
2023-04-03T02:49:40.055Z,1.77
2023-04-03T02:50:40.045Z,1.75
2023-04-03T02:51:40.045Z,1.75
2023-04-03T02:52:40.033Z,1.75
2023-04-03T02:53:40.036Z,1.74
2023-04-03T02:54:40.011Z,1.77
2023-04-03T02:55:39.987Z,1.71
2023-04-03T02:56:39.994Z,1.71
2023-04-03T02:57:39.969Z,1.71
2023-04-03T02:58:39.999Z,1.68
2023-04-03T02:59:39.943Z,1.67
2023-04-03T03:00:40.015Z,1.67
2023-04-03T03:01:40.028Z,1.64
2023-04-03T03:02:39.951Z,1.63
2023-04-03T03:03:39.947Z,1.63
2023-04-03T03:04:39.986Z,1.67
2023-04-03T03:05:39.882Z,1.65
2023-04-03T03:06:39.910Z,1.61
2023-04-03T03:07:39.875Z,1.64
2023-04-03T03:08:39.908Z,1.63
2023-04-03T03:09:39.841Z,1.60
2023-04-03T03:10:39.865Z,1.56
2023-04-03T03:11:39.829Z,1.60
2023-04-03T03:12:39.836Z,1.57
2023-04-03T03:13:39.826Z,1.56
2023-04-03T03:14:39.816Z,1.52
2023-04-03T03:15:39.837Z,1.54
2023-04-03T03:16:39.794Z,1.49
2023-04-03T03:17:39.790Z,1.49
2023-04-03T03:18:39.818Z,1.46
2023-04-03T03:19:39.755Z,1.47
2023-04-03T03:20:39.748Z,1.44
2023-04-03T03:21:39.736Z,1.44
2023-04-03T03:22:39.728Z,1.42
2023-04-03T03:23:39.726Z,1.38
2023-04-03T03:24:39.742Z,1.39
2023-04-03T03:25:39.696Z,1.35
2023-04-03T03:26:39.688Z,1.38
2023-04-03T03:27:39.687Z,1.38
2023-04-03T03:28:39.724Z,1.35
2023-04-03T03:29:39.728Z,1.35
2023-04-03T03:30:39.639Z,1.34
2023-04-03T03:31:39.674Z,1.34
2023-04-03T03:32:39.642Z,1.35
2023-04-03T03:33:39.627Z,1.35
2023-04-03T03:34:39.607Z,1.34
2023-04-03T03:35:39.839Z,1.32
2023-04-03T03:36:39.687Z,1.34
2023-04-03T03:37:39.589Z,1.35
2023-04-03T03:38:39.585Z,1.36
2023-04-03T03:39:39.569Z,1.34
2023-04-03T03:40:39.558Z,1.38
2023-04-03T03:41:39.530Z,1.36
2023-04-03T03:42:39.523Z,1.35
2023-04-03T03:43:39.533Z,1.36
2023-04-03T03:44:39.521Z,1.34
2023-04-03T03:45:39.635Z,1.34
2023-04-03T03:46:39.527Z,1.32
2023-04-03T03:47:39.504Z,1.36
2023-04-03T03:48:39.495Z,1.34
2023-04-03T03:49:39.469Z,1.31
2023-04-03T03:50:39.471Z,1.32
2023-04-03T03:51:39.441Z,1.31
2023-04-03T03:52:39.455Z,1.31
2023-04-03T03:53:39.440Z,1.29
2023-04-03T03:54:39.418Z,1.29
2023-04-03T03:55:39.664Z,1.28
2023-04-03T03:56:39.409Z,1.25
2023-04-03T03:57:39.380Z,1.25
2023-04-03T03:58:39.391Z,1.24
2023-04-03T03:59:39.369Z,1.20
2023-04-03T04:00:39.365Z,1.21
2023-04-03T04:01:39.371Z,1.20
2023-04-03T04:02:39.556Z,1.25
2023-04-03T04:03:39.471Z,1.24
2023-04-03T04:04:39.324Z,1.24
2023-04-03T04:05:39.719Z,1.24
2023-04-03T04:06:39.293Z,1.20
2023-04-03T04:07:39.299Z,1.24
2023-04-03T04:08:39.280Z,1.24
2023-04-03T04:09:39.285Z,1.21
2023-04-03T04:10:39.284Z,1.21
2023-04-03T04:11:39.257Z,1.24
2023-04-03T04:12:39.192Z,1.24
2023-04-03T04:13:39.179Z,1.24
2023-04-03T04:14:39.191Z,1.25
2023-04-03T04:15:39.611Z,1.24
2023-04-03T04:16:39.169Z,1.20
2023-04-03T04:17:39.159Z,1.20
2023-04-03T04:18:39.146Z,1.24
2023-04-03T04:19:39.155Z,1.21
2023-04-03T04:20:39.104Z,1.20
2023-04-03T04:21:39.201Z,1.18
2023-04-03T04:22:39.102Z,1.17
2023-04-03T04:23:39.085Z,1.16
2023-04-03T04:24:39.836Z,1.14
2023-04-03T04:25:39.304Z,1.14
2023-04-03T04:26:39.066Z,1.17
2023-04-03T04:27:39.065Z,1.14
2023-04-03T04:28:39.023Z,1.11
2023-04-03T04:29:39.022Z,1.14
2023-04-03T04:30:39.031Z,1.11
2023-04-03T04:31:38.996Z,1.13
2023-04-03T04:32:38.993Z,1.10
2023-04-03T04:33:38.986Z,1.14
2023-04-03T04:34:39.005Z,1.13
2023-04-03T04:35:39.303Z,1.13
2023-04-03T04:36:39.026Z,1.13
2023-04-03T04:37:38.930Z,1.13
2023-04-03T04:38:38.921Z,1.13
2023-04-03T04:39:38.936Z,1.13
2023-04-03T04:40:38.912Z,1.14
2023-04-03T04:41:38.887Z,1.14
2023-04-03T04:42:38.879Z,1.17
2023-04-03T04:43:38.895Z,1.14
2023-04-03T04:44:38.862Z,1.16
2023-04-03T04:45:39.300Z,1.13
2023-04-03T04:46:38.857Z,1.11
2023-04-03T04:47:38.903Z,1.13
2023-04-03T04:48:38.828Z,1.11
2023-04-03T04:49:38.854Z,1.11
2023-04-03T04:50:38.798Z,1.11
2023-04-03T04:51:51.018Z,1.10
2023-04-03T04:52:38.773Z,1.13
2023-04-03T04:53:38.767Z,1.11
2023-04-03T04:54:38.766Z,1.11
2023-04-03T04:55:39.040Z,1.07
2023-04-03T04:56:38.734Z,1.08
2023-04-03T04:57:38.739Z,1.07
2023-04-03T04:58:38.711Z,1.08
2023-04-03T04:59:38.717Z,1.10
2023-04-03T05:00:38.689Z,1.07
2023-04-03T05:01:38.698Z,1.10
2023-04-03T05:02:38.732Z,1.11
2023-04-03T05:03:38.664Z,1.13
2023-04-03T05:04:38.740Z,1.14
2023-04-03T05:05:39.154Z,1.11
2023-04-03T05:06:38.662Z,1.16
2023-04-03T05:07:38.633Z,1.14
2023-04-03T05:08:38.610Z,1.14
2023-04-03T05:09:38.620Z,1.13
2023-04-03T05:10:38.678Z,1.16
2023-04-03T05:11:38.592Z,1.18
2023-04-03T05:12:38.568Z,1.20
2023-04-03T05:13:38.563Z,1.20
2023-04-03T05:14:38.958Z,1.21
2023-04-03T05:15:38.826Z,1.21
2023-04-03T05:16:38.529Z,1.24
2023-04-03T05:17:38.620Z,1.24
2023-04-03T05:18:38.505Z,1.26
2023-04-03T05:19:38.535Z,1.25
2023-04-03T05:20:38.488Z,1.26
2023-04-03T05:21:38.492Z,1.28
2023-04-03T05:22:38.474Z,1.29
2023-04-03T05:23:38.460Z,1.28
2023-04-03T05:24:38.469Z,1.31
2023-04-03T05:25:38.744Z,1.31
2023-04-03T05:26:38.429Z,1.34
2023-04-03T05:27:38.440Z,1.32
2023-04-03T05:28:38.410Z,1.34
2023-04-03T05:29:38.478Z,1.36
2023-04-03T05:30:38.468Z,1.36
2023-04-03T05:31:38.523Z,1.36
2023-04-03T05:32:38.401Z,1.39
2023-04-03T05:33:38.361Z,1.42
2023-04-03T05:34:38.386Z,1.43
2023-04-03T05:35:38.949Z,1.46
2023-04-03T05:36:38.428Z,1.46
2023-04-03T05:37:38.347Z,1.47
2023-04-03T05:38:38.395Z,1.52
2023-04-03T05:39:38.385Z,1.53
2023-04-03T05:40:38.293Z,1.60
2023-04-03T05:41:38.279Z,1.57
2023-04-03T05:42:38.277Z,1.61
2023-04-03T05:43:38.282Z,1.63
2023-04-03T05:44:38.270Z,1.67
2023-04-03T05:45:38.273Z,1.65
2023-04-03T05:46:38.222Z,1.68
2023-04-03T05:47:38.241Z,1.71
2023-04-03T05:48:38.248Z,1.70
2023-04-03T05:49:38.236Z,1.74
2023-04-03T05:50:38.189Z,1.77
2023-04-03T05:51:38.181Z,1.77
2023-04-03T05:52:38.165Z,1.83
2023-04-03T05:53:38.195Z,1.86
2023-04-03T05:54:38.159Z,1.88
2023-04-03T05:55:38.449Z,1.89
2023-04-03T05:56:38.148Z,1.90
2023-04-03T05:57:38.270Z,1.93
2023-04-03T05:58:38.105Z,1.95
2023-04-03T05:59:38.159Z,2.01
2023-04-03T06:00:38.086Z,2.05
2023-04-03T06:01:38.088Z,2.09
2023-04-03T06:02:38.174Z,2.09
2023-04-03T06:03:40.059Z,2.14
2023-04-03T06:04:38.262Z,2.15
2023-04-03T06:05:38.335Z,2.18
2023-04-03T06:06:38.021Z,2.22
2023-04-03T06:07:38.031Z,2.22
2023-04-03T06:08:37.996Z,2.26
2023-04-03T06:09:38.007Z,2.25
2023-04-03T06:10:38.242Z,2.30
2023-04-03T06:11:38.008Z,2.30
2023-04-03T06:12:37.966Z,2.33
2023-04-03T06:13:37.974Z,2.36
2023-04-03T06:14:38.042Z,2.40
2023-04-03T06:15:37.933Z,2.40
2023-04-03T06:16:39.517Z,2.43
2023-04-03T06:17:37.947Z,2.44
2023-04-03T06:18:37.904Z,2.43
2023-04-03T06:19:37.923Z,2.45
2023-04-03T06:20:38.392Z,2.47
2023-04-03T06:21:37.900Z,2.48
2023-04-03T06:22:37.911Z,2.51
2023-04-03T06:23:37.860Z,2.51
2023-04-03T06:24:37.860Z,2.55
2023-04-03T06:25:37.844Z,2.53
2023-04-03T06:26:37.835Z,2.56
2023-04-03T06:27:37.807Z,2.61
2023-04-03T06:28:37.824Z,2.62
2023-04-03T06:29:37.886Z,2.65
2023-04-03T06:30:38.129Z,2.68
2023-04-03T06:31:37.858Z,2.68
2023-04-03T06:32:37.776Z,2.71
2023-04-03T06:33:37.750Z,2.73
2023-04-03T06:34:37.765Z,2.74
2023-04-03T06:35:37.768Z,2.77
2023-04-03T06:36:37.742Z,2.79
2023-04-03T06:37:37.738Z,2.81
2023-04-03T06:38:37.691Z,2.83
2023-04-03T06:39:37.731Z,2.87
2023-04-03T06:40:37.908Z,2.90
2023-04-03T06:41:37.668Z,2.90
2023-04-03T06:42:37.717Z,2.94
2023-04-03T06:43:37.692Z,2.95
2023-04-03T06:44:37.649Z,2.98
2023-04-03T06:45:37.880Z,3.04
2023-04-03T06:46:37.633Z,3.05
2023-04-03T06:47:37.661Z,3.07
2023-04-03T06:48:37.843Z,3.12
2023-04-03T06:49:37.629Z,3.16
2023-04-03T06:50:37.579Z,3.20
2023-04-03T06:51:37.576Z,3.26
2023-04-03T06:52:37.552Z,3.28
2023-04-03T06:53:37.567Z,3.33
2023-04-03T06:54:37.550Z,3.35
2023-04-03T06:55:37.785Z,3.44
2023-04-03T06:56:46.764Z,3.46
2023-04-03T06:57:37.599Z,3.52
2023-04-03T06:58:37.486Z,3.53
2023-04-03T06:59:39.112Z,3.56
2023-04-03T07:00:37.480Z,3.59
2023-04-03T07:01:37.478Z,3.63
2023-04-03T07:02:37.476Z,3.70
2023-04-03T07:03:37.443Z,3.92
2023-04-03T07:04:37.491Z,4.50
2023-04-03T07:05:37.697Z,5.02
2023-04-03T07:06:37.422Z,6.39
2023-04-03T07:07:37.399Z,7.95
2023-04-03T07:08:37.385Z,9.41
2023-04-03T07:09:37.397Z,10.52
2023-04-03T07:10:37.374Z,11.49
2023-04-03T07:11:37.375Z,12.12
2023-04-03T07:12:37.369Z,12.74
2023-04-03T07:13:37.352Z,13.36
2023-04-03T07:14:37.339Z,13.14
2023-04-03T07:15:37.690Z,13.39
2023-04-03T07:16:38.800Z,13.90
2023-04-03T07:17:37.324Z,14.36
2023-04-03T07:18:37.277Z,14.60
2023-04-03T07:19:37.299Z,14.71
2023-04-03T07:20:37.256Z,14.94
2023-04-03T07:21:37.252Z,15.12
2023-04-03T07:22:37.246Z,15.43
2023-04-03T07:23:37.247Z,15.64
2023-04-03T07:24:37.237Z,15.59
2023-04-03T07:25:37.476Z,15.52
2023-04-03T07:26:37.209Z,15.51
2023-04-03T07:27:37.197Z,15.25
2023-04-03T07:28:37.192Z,15.20
2023-04-03T07:29:37.190Z,15.34
2023-04-03T07:30:37.194Z,15.70
2023-04-03T07:31:37.231Z,15.67
2023-04-03T07:32:37.181Z,15.55
2023-04-03T07:33:37.167Z,15.51
2023-04-03T07:34:37.149Z,14.21
2023-04-03T07:35:37.543Z,14.66
2023-04-03T07:36:37.096Z,14.75
2023-04-03T07:37:37.097Z,14.90
2023-04-03T07:38:37.097Z,15.03
2023-04-03T07:39:37.080Z,15.30
2023-04-03T07:40:37.053Z,13.87
2023-04-03T07:41:37.049Z,14.12
2023-04-03T07:42:37.055Z,13.41
2023-04-03T07:43:37.040Z,12.66
2023-04-03T07:44:37.030Z,12.30
2023-04-03T07:45:37.241Z,11.39
2023-04-03T07:46:37.002Z,11.23
2023-04-03T07:47:37.016Z,10.28
2023-04-03T07:48:36.977Z,9.80
2023-04-03T07:49:36.983Z,10.38
2023-04-03T07:50:36.979Z,9.60
2023-04-03T07:51:36.962Z,9.48
2023-04-03T07:52:36.930Z,9.32
2023-04-03T07:53:36.932Z,8.70
2023-04-03T07:54:36.917Z,8.22
2023-04-03T07:55:37.176Z,7.81
2023-04-03T07:56:36.901Z,7.91
2023-04-03T07:57:37.003Z,8.58
2023-04-03T07:58:36.900Z,8.96
2023-04-03T07:59:36.888Z,8.39
2023-04-03T08:00:36.861Z,7.89
2023-04-03T08:01:36.852Z,7.54
2023-04-03T08:02:36.905Z,7.26
2023-04-03T08:03:36.953Z,7.58
2023-04-03T08:04:36.919Z,9.98
2023-04-03T08:05:37.087Z,11.85
2023-04-03T08:06:45.986Z,13.32
2023-04-03T08:07:36.789Z,13.68
2023-04-03T08:08:36.758Z,12.21
2023-04-03T08:09:36.770Z,10.80
2023-04-03T08:10:36.801Z,9.80
2023-04-03T08:11:36.746Z,8.94
2023-04-03T08:12:36.746Z,8.24
2023-04-03T08:13:36.758Z,7.82
2023-04-03T08:14:36.699Z,7.57
2023-04-03T08:15:36.963Z,7.39
2023-04-03T08:16:36.694Z,9.42
2023-04-03T08:17:36.722Z,10.36
2023-04-03T08:18:36.662Z,11.63
2023-04-03T08:19:36.661Z,11.53
2023-04-03T08:20:36.688Z,11.53
2023-04-03T08:21:36.631Z,11.39
2023-04-03T08:22:36.629Z,10.42
2023-04-03T08:23:36.633Z,9.77
2023-04-03T08:24:37.748Z,9.24
2023-04-03T08:25:36.805Z,8.78
2023-04-03T08:26:36.582Z,8.29
2023-04-03T08:27:36.572Z,7.94
2023-04-03T08:28:36.568Z,7.50
2023-04-03T08:29:36.551Z,7.21
2023-04-03T08:30:36.608Z,7.33
2023-04-03T08:31:36.534Z,7.21
2023-04-03T08:32:36.541Z,7.16
2023-04-03T08:33:36.512Z,7.19
2023-04-03T08:34:36.520Z,7.09
2023-04-03T08:35:38.095Z,7.08
2023-04-03T08:36:36.484Z,7.42
2023-04-03T08:37:36.470Z,7.27
2023-04-03T08:38:36.475Z,7.12
2023-04-03T08:39:36.444Z,6.97
2023-04-03T08:40:36.636Z,6.76
2023-04-03T08:41:36.432Z,6.58
2023-04-03T08:42:36.432Z,6.38
2023-04-03T08:43:36.422Z,6.19
2023-04-03T08:44:36.454Z,6.11
2023-04-03T08:45:36.694Z,6.06
2023-04-03T08:46:36.546Z,6.08
2023-04-03T08:47:36.379Z,6.11
2023-04-03T08:48:36.382Z,6.20
2023-04-03T08:49:36.389Z,6.28
2023-04-03T08:50:36.453Z,6.19
2023-04-03T08:51:36.329Z,6.13
2023-04-03T08:52:36.316Z,6.11
2023-04-03T08:53:36.323Z,6.24
2023-04-03T08:54:36.329Z,6.42
2023-04-03T08:55:36.675Z,6.51
2023-04-03T08:56:36.318Z,6.43
2023-04-03T08:57:36.389Z,6.33
2023-04-03T08:58:36.263Z,6.36
2023-04-03T08:59:36.250Z,6.38
2023-04-03T09:00:36.275Z,6.32
2023-04-03T09:01:36.284Z,6.38
2023-04-03T09:02:36.276Z,6.76
2023-04-03T09:03:36.229Z,7.09
2023-04-03T09:04:36.204Z,8.43
2023-04-03T09:05:36.312Z,9.73
2023-04-03T09:06:36.376Z,9.48
2023-04-03T09:07:36.153Z,8.98
2023-04-03T09:08:36.165Z,8.82
2023-04-03T09:09:36.144Z,8.63
2023-04-03T09:10:36.398Z,8.27
2023-04-03T09:11:36.134Z,8.37
2023-04-03T09:12:36.116Z,8.73
2023-04-03T09:13:36.089Z,10.24
2023-04-03T09:14:36.101Z,10.73
2023-04-03T09:15:39.583Z,9.91
2023-04-03T09:16:36.089Z,9.32
2023-04-03T09:17:36.059Z,10.02
2023-04-03T09:18:36.053Z,10.34
2023-04-03T09:19:36.038Z,10.60
2023-04-03T09:20:36.251Z,10.52
2023-04-03T09:21:36.014Z,11.62
2023-04-03T09:22:41.932Z,12.08
2023-04-03T09:23:36.141Z,12.73
2023-04-03T09:24:36.007Z,12.22
2023-04-03T09:25:35.980Z,12.03
2023-04-03T09:26:35.970Z,11.42
2023-04-03T09:27:35.968Z,11.20
2023-04-03T09:28:46.789Z,10.87
2023-04-03T09:29:35.930Z,10.75
2023-04-03T09:30:36.268Z,10.26
2023-04-03T09:31:35.917Z,10.73
2023-04-03T09:32:35.981Z,11.94
2023-04-03T09:33:35.909Z,12.34
2023-04-03T09:34:35.879Z,11.57
2023-04-03T09:35:47.387Z,10.73
2023-04-03T09:36:35.869Z,10.07
2023-04-03T09:37:35.860Z,9.37
2023-04-03T09:38:35.843Z,8.91
2023-04-03T09:39:35.820Z,8.57
2023-04-03T09:40:36.469Z,8.40
2023-04-03T09:41:35.811Z,8.29
2023-04-03T09:42:35.791Z,8.21
2023-04-03T09:43:35.817Z,8.20
2023-04-03T09:44:35.797Z,8.24
2023-04-03T09:45:35.780Z,8.31
2023-04-03T09:46:35.836Z,8.55
2023-04-03T09:47:35.765Z,9.13
2023-04-03T09:48:35.763Z,9.16
2023-04-03T09:49:35.723Z,8.94
2023-04-03T09:50:35.936Z,8.70
2023-04-03T09:51:35.699Z,8.63
2023-04-03T09:52:35.724Z,8.57
2023-04-03T09:53:35.684Z,8.45
2023-04-03T09:54:35.682Z,8.31
2023-04-03T09:55:35.674Z,8.17
2023-04-03T09:56:35.680Z,8.00
2023-04-03T09:57:35.709Z,7.86
2023-04-03T09:58:43.190Z,7.79
2023-04-03T09:59:35.640Z,7.81
2023-04-03T10:00:35.677Z,7.88
2023-04-03T10:01:35.621Z,8.03
2023-04-03T10:02:35.636Z,8.20
2023-04-03T10:03:35.576Z,9.20
2023-04-03T10:04:35.604Z,9.75
2023-04-03T10:05:35.569Z,9.58
2023-04-03T10:06:35.554Z,9.73
2023-04-03T10:07:35.537Z,9.98
2023-04-03T10:08:35.530Z,9.59
2023-04-03T10:09:35.532Z,9.30
2023-04-03T10:10:35.602Z,9.16
2023-04-03T10:11:35.499Z,9.08
2023-04-03T10:12:35.487Z,9.01
2023-04-03T10:13:45.146Z,8.83
2023-04-03T10:14:35.478Z,8.67
2023-04-03T10:15:35.481Z,8.50
2023-04-03T10:16:35.490Z,8.36
2023-04-03T10:17:35.441Z,8.20
2023-04-03T10:18:35.503Z,8.17
2023-04-03T10:19:35.428Z,8.21
2023-04-03T10:20:35.421Z,8.25
2023-04-03T10:21:35.398Z,8.18
2023-04-03T10:22:35.389Z,8.14
2023-04-03T10:23:35.378Z,8.07
2023-04-03T10:24:35.383Z,8.00
2023-04-03T10:25:35.374Z,7.96
2023-04-03T10:26:35.343Z,8.00
2023-04-03T10:27:35.324Z,8.10
2023-04-03T10:28:35.330Z,8.29
2023-04-03T10:29:35.304Z,8.37
2023-04-03T10:30:35.678Z,8.36
2023-04-03T10:31:35.375Z,8.27
2023-04-03T10:32:35.309Z,8.14
2023-04-03T10:33:35.334Z,8.03
2023-04-03T10:34:35.283Z,7.99
2023-04-03T10:35:35.329Z,7.89
2023-04-03T10:36:35.246Z,7.81
2023-04-03T10:37:35.236Z,7.73
2023-04-03T10:38:35.217Z,7.63
2023-04-03T10:39:35.208Z,7.60
2023-04-03T10:40:35.250Z,7.55
2023-04-03T10:41:35.187Z,7.45
2023-04-03T10:42:35.179Z,7.36
2023-04-03T10:43:35.158Z,7.32
2023-04-03T10:44:35.175Z,7.30
2023-04-03T10:45:35.150Z,7.30
2023-04-03T10:46:35.194Z,7.33
2023-04-03T10:47:36.600Z,7.42
2023-04-03T10:48:35.111Z,7.47
2023-04-03T10:49:35.114Z,7.57
2023-04-03T10:50:35.134Z,7.76
2023-04-03T10:51:35.069Z,8.00
2023-04-03T10:52:35.075Z,8.24
2023-04-03T10:53:35.090Z,8.34
2023-04-03T10:54:35.052Z,8.37
2023-04-03T10:55:35.082Z,8.37
2023-04-03T10:56:35.028Z,8.27
2023-04-03T10:57:35.074Z,8.09
2023-04-03T10:58:35.033Z,8.02
2023-04-03T10:59:35.020Z,7.89
2023-04-03T11:00:35.157Z,7.79
2023-04-03T11:01:35.028Z,7.67
2023-04-03T11:02:35.109Z,7.58
2023-04-03T11:03:35.055Z,7.60
2023-04-03T11:04:34.951Z,7.54
2023-04-03T11:05:34.946Z,7.44
2023-04-03T11:06:34.948Z,7.34
2023-04-03T11:07:34.927Z,7.32
2023-04-03T11:08:34.941Z,7.26
2023-04-03T11:09:34.906Z,7.24
2023-04-03T11:10:34.895Z,7.16
2023-04-03T11:11:34.892Z,7.18
2023-04-03T11:12:34.873Z,7.19
2023-04-03T11:13:34.889Z,7.24
2023-04-03T11:14:34.889Z,7.32
2023-04-03T11:15:34.857Z,7.41
2023-04-03T11:16:43.293Z,7.50
2023-04-03T11:17:34.837Z,7.63
2023-04-03T11:18:34.811Z,7.74
2023-04-03T11:19:34.836Z,7.91
2023-04-03T11:20:34.789Z,8.06
2023-04-03T11:21:34.790Z,8.20
2023-04-03T11:22:34.770Z,8.39
2023-04-03T11:23:45.845Z,8.47
2023-04-03T11:24:34.762Z,8.39
2023-04-03T11:25:34.786Z,8.22
2023-04-03T11:26:34.767Z,8.20
2023-04-03T11:27:34.716Z,8.25
2023-04-03T11:28:34.706Z,8.25
2023-04-03T11:29:35.769Z,8.20
2023-04-03T11:30:34.693Z,8.07
2023-04-03T11:31:34.740Z,7.92
2023-04-03T11:32:34.695Z,7.86
2023-04-03T11:33:34.669Z,7.82
2023-04-03T11:34:34.654Z,7.76
2023-04-03T11:35:34.692Z,7.70
2023-04-03T11:36:35.818Z,7.70
2023-04-03T11:37:34.642Z,7.70
2023-04-03T11:38:34.600Z,7.76
2023-04-03T11:39:34.656Z,7.82
2023-04-03T11:40:34.579Z,7.96
2023-04-03T11:41:34.597Z,8.06
2023-04-03T11:42:34.619Z,8.07
2023-04-03T11:43:34.574Z,8.02
2023-04-03T11:44:34.554Z,7.95
2023-04-03T11:45:34.553Z,7.91
2023-04-03T11:46:34.599Z,7.89
2023-04-03T11:47:34.610Z,7.95
2023-04-03T11:48:34.566Z,8.09
2023-04-03T11:49:34.483Z,8.20
2023-04-03T11:50:34.479Z,8.31
2023-04-03T11:51:34.487Z,8.39
2023-04-03T11:52:34.468Z,8.42
2023-04-03T11:53:34.451Z,8.43
2023-04-03T11:54:38.648Z,8.37
2023-04-03T11:55:34.424Z,8.31
2023-04-03T11:56:34.437Z,8.29
2023-04-03T11:57:34.488Z,8.22
2023-04-03T11:58:34.389Z,8.14
2023-04-03T11:59:34.390Z,8.09
2023-04-03T12:00:34.369Z,8.02
2023-04-03T12:01:34.367Z,7.96
2023-04-03T12:02:38.542Z,7.91
2023-04-03T12:03:35.328Z,7.86
2023-04-03T12:04:34.397Z,7.88
2023-04-03T12:05:34.358Z,7.86
2023-04-03T12:06:34.341Z,7.85
2023-04-03T12:07:34.306Z,7.86
2023-04-03T12:08:34.306Z,7.82
2023-04-03T12:09:34.302Z,7.70
2023-04-03T12:10:34.413Z,7.60
2023-04-03T12:11:34.282Z,7.55
2023-04-03T12:12:34.315Z,7.60
2023-04-03T12:13:34.270Z,7.67
2023-04-03T12:14:34.225Z,7.81
2023-04-03T12:15:34.231Z,8.03
2023-04-03T12:16:34.237Z,8.42
2023-04-03T12:17:34.246Z,8.61
2023-04-03T12:18:34.189Z,8.83
2023-04-03T12:19:42.517Z,9.01
2023-04-03T12:20:34.184Z,9.34
2023-04-03T12:21:34.170Z,9.56
2023-04-03T12:22:34.154Z,9.93
2023-04-03T12:23:34.136Z,10.44
2023-04-03T12:24:34.117Z,10.65
2023-04-03T12:25:34.098Z,10.68
2023-04-03T12:26:42.035Z,10.72
2023-04-03T12:27:34.099Z,10.90
2023-04-03T12:28:34.105Z,10.95
2023-04-03T12:29:34.094Z,11.06
2023-04-03T12:30:34.084Z,11.06
2023-04-03T12:31:34.234Z,11.28
2023-04-03T12:32:34.096Z,11.35
2023-04-03T12:33:34.043Z,11.49
2023-04-03T12:34:34.021Z,12.49
2023-04-03T12:35:34.031Z,13.25
2023-04-03T12:36:34.030Z,13.48
2023-04-03T12:37:34.024Z,12.71
2023-04-03T12:38:34.022Z,12.03
2023-04-03T12:39:33.983Z,11.49
2023-04-03T12:40:33.958Z,11.09
2023-04-03T12:41:34.012Z,10.83
2023-04-03T12:42:33.944Z,10.39
2023-04-03T12:43:33.943Z,9.93
2023-04-03T12:44:33.934Z,9.63
2023-04-03T12:45:33.925Z,9.41
2023-04-03T12:46:33.953Z,9.19
2023-04-03T12:47:34.026Z,8.98
2023-04-03T12:48:33.897Z,8.89
2023-04-03T12:49:33.893Z,8.82
2023-04-03T12:50:33.903Z,8.63
2023-04-03T12:51:33.865Z,8.52
2023-04-03T12:52:33.845Z,8.45
2023-04-03T12:53:33.837Z,8.40
2023-04-03T12:54:33.820Z,8.39
2023-04-03T12:55:33.814Z,8.43
2023-04-03T12:56:33.913Z,8.52
2023-04-03T12:57:33.952Z,8.68
2023-04-03T12:58:33.806Z,8.93
2023-04-03T12:59:33.769Z,9.10
2023-04-03T13:00:33.760Z,9.12
2023-04-03T13:01:33.783Z,9.04
2023-04-03T13:02:33.829Z,9.03
2023-04-03T13:03:33.827Z,9.01
2023-04-03T13:04:33.708Z,9.00
2023-04-03T13:05:36.579Z,9.12
2023-04-03T13:06:33.691Z,9.19
2023-04-03T13:07:33.688Z,9.45
2023-04-03T13:08:33.679Z,9.75
2023-04-03T13:09:33.687Z,9.65
2023-04-03T13:10:33.667Z,9.37
2023-04-03T13:11:33.650Z,9.20
2023-04-03T13:12:33.631Z,8.98
2023-04-03T13:13:33.630Z,8.88
2023-04-03T13:14:33.605Z,8.78
2023-04-03T13:15:33.620Z,8.71